Larder Lake, Canada
Current Conditions -  °F | °C
As of 4:00 PM on Tuesday 21 Oct 2014 (Local Time) from CYXR Reporting Station
Broken Clouds Broken Clouds  
Wind Chill: 32°   Ceiling: 3300
Heat Index: 39°   Visibility: 9mi
Dew Point: 30°   Wind: 13mph
Humidity: 70%   Direction: 350°N
Pressure: 30.24"   Gusts: 18mph
Location:  48.1°N, 79.72°W
Report Text: CYXR 212000Z AUTO 35011G16KT 9SM BKN033 04/M01 A3024 RMK SLP251
Loading
Personal Weather Stations






























Interactive Weather Map
Tropical Storm Tracking
New forecast layout! Learn more

10-Day Weather Forecast

Advertisements
Track Severe Weather on mobile